OMKFY LZSK-LZSK
Flight info
| Callsign | OMKFY |
|---|---|
| Flight time | 1h 44m |
| Altitude | 8000 |
| Route | HATIP IFR N133 KSC STAY1/0045 KSC/N0119A070 N133 HATIP VFR |
| Aircraft | DA40/L-SDFGRY/C |
Departure
| Time | 2026-05-06 17:18 |
|---|---|
| Airport | Svidník Airfield (LZSK) |
Arrival
| Time | 2026-05-06 19:03 |
|---|---|
| Airport | Svidník Airfield (LZSK) |
| Time | Latitude | Longitude | Altitude | Speed | Heading |
|---|---|---|---|---|---|
| 2026-05-06 17:06 | 49.32713 | 21.56546 | 1133 ft | 0 kts | 271° |
| 2026-05-06 17:10 | 49.32706 | 21.56528 | 1130 ft | 2 kts | 175° |
| 2026-05-06 17:10 | 49.32733 | 21.56598 | 1132 ft | 20 kts | 47° |
| 2026-05-06 17:10 | 49.32848 | 21.56770 | 1147 ft | 11 kts | 51° |
| 2026-05-06 17:10 | 49.32861 | 21.56794 | 1146 ft | 0 kts | 46° |
| 2026-05-06 17:12 | 49.32916 | 21.56867 | 1144 ft | 15 kts | 21° |
| 2026-05-06 17:13 | 49.33051 | 21.56903 | 1148 ft | 24 kts | 11° |
| 2026-05-06 17:13 | 49.33252 | 21.56958 | 1146 ft | 34 kts | 10° |
| 2026-05-06 17:13 | 49.33474 | 21.57007 | 1144 ft | 31 kts | 11° |
| 2026-05-06 17:13 | 49.33678 | 21.57062 | 1134 ft | 29 kts | 12° |
| 2026-05-06 17:14 | 49.33795 | 21.57097 | 1133 ft | 5 kts | 277° |
| 2026-05-06 17:14 | 49.33779 | 21.57090 | 1132 ft | 0 kts | 190° |
| 2026-05-06 17:17 | 49.33675 | 21.57063 | 1134 ft | 36 kts | 190° |
| 2026-05-06 17:17 | 49.33315 | 21.56971 | 1179 ft | 64 kts | 188° |
| 2026-05-06 17:18 | 49.32822 | 21.56890 | 1306 ft | 77 kts | 178° |
| 2026-05-06 17:18 | 49.32319 | 21.57144 | 1569 ft | 78 kts | 163° |
| 2026-05-06 17:18 | 49.31774 | 21.57458 | 1797 ft | 86 kts | 162° |
| 2026-05-06 17:18 | 49.31282 | 21.57822 | 2152 ft | 76 kts | 157° |
| 2026-05-06 17:19 | 49.30844 | 21.58351 | 2397 ft | 82 kts | 148° |
| 2026-05-06 17:19 | 49.30432 | 21.58948 | 2636 ft | 80 kts | 148° |
| 2026-05-06 17:19 | 49.30027 | 21.59539 | 2806 ft | 83 kts | 144° |
| 2026-05-06 17:19 | 49.29593 | 21.60243 | 3012 ft | 84 kts | 151° |
| 2026-05-06 17:20 | 49.29170 | 21.60719 | 3158 ft | 83 kts | 153° |
| 2026-05-06 17:20 | 49.28693 | 21.61245 | 3337 ft | 87 kts | 154° |
| 2026-05-06 17:20 | 49.28197 | 21.61793 | 3505 ft | 89 kts | 154° |
| 2026-05-06 17:20 | 49.27690 | 21.62360 | 3689 ft | 93 kts | 154° |
| 2026-05-06 17:21 | 49.27152 | 21.62949 | 3866 ft | 96 kts | 154° |
| 2026-05-06 17:21 | 49.26604 | 21.63553 | 4034 ft | 97 kts | 154° |
| 2026-05-06 17:21 | 49.26045 | 21.64151 | 4215 ft | 98 kts | 161° |
| 2026-05-06 17:21 | 49.25428 | 21.64593 | 4392 ft | 98 kts | 165° |
| 2026-05-06 17:22 | 49.24806 | 21.65025 | 4566 ft | 97 kts | 165° |
| 2026-05-06 17:22 | 49.24192 | 21.65459 | 4746 ft | 97 kts | 165° |
| 2026-05-06 17:22 | 49.23580 | 21.65900 | 4915 ft | 98 kts | 165° |
| 2026-05-06 17:22 | 49.22974 | 21.66338 | 5079 ft | 96 kts | 165° |
| 2026-05-06 17:23 | 49.22366 | 21.66784 | 5256 ft | 95 kts | 165° |
| 2026-05-06 17:23 | 49.21774 | 21.67222 | 5429 ft | 97 kts | 165° |
| 2026-05-06 17:23 | 49.21169 | 21.67671 | 5600 ft | 96 kts | 165° |
| 2026-05-06 17:23 | 49.20574 | 21.68107 | 5773 ft | 94 kts | 165° |
| 2026-05-06 17:24 | 49.19981 | 21.68552 | 5951 ft | 96 kts | 165° |
| 2026-05-06 17:24 | 49.19386 | 21.69004 | 6126 ft | 95 kts | 165° |
| 2026-05-06 17:24 | 49.18792 | 21.69463 | 6304 ft | 96 kts | 165° |
| 2026-05-06 17:24 | 49.18198 | 21.69925 | 6469 ft | 96 kts | 165° |
| 2026-05-06 17:25 | 49.17603 | 21.70384 | 6632 ft | 95 kts | 165° |
| 2026-05-06 17:25 | 49.17021 | 21.70829 | 6799 ft | 92 kts | 165° |
| 2026-05-06 17:25 | 49.16450 | 21.71270 | 6971 ft | 93 kts | 165° |
| 2026-05-06 17:25 | 49.15873 | 21.71715 | 7143 ft | 94 kts | 165° |
| 2026-05-06 17:26 | 49.15283 | 21.72133 | 7305 ft | 91 kts | 172° |
| 2026-05-06 17:26 | 49.14715 | 21.72420 | 7435 ft | 80 kts | 175° |
| 2026-05-06 17:26 | 49.14204 | 21.72660 | 7631 ft | 77 kts | 176° |
| 2026-05-06 17:26 | 49.13677 | 21.72893 | 7803 ft | 80 kts | 176° |
| 2026-05-06 17:27 | 49.13146 | 21.73124 | 7982 ft | 82 kts | 175° |
| 2026-05-06 17:27 | 49.12531 | 21.73363 | 7993 ft | 98 kts | 177° |
| 2026-05-06 17:27 | 49.11833 | 21.73577 | 7989 ft | 107 kts | 178° |
| 2026-05-06 17:27 | 49.11074 | 21.73790 | 7990 ft | 113 kts | 178° |
| 2026-05-06 17:28 | 49.10284 | 21.74008 | 7994 ft | 117 kts | 178° |
| 2026-05-06 17:28 | 49.09476 | 21.74228 | 7992 ft | 118 kts | 178° |
| 2026-05-06 17:28 | 49.08665 | 21.74450 | 7995 ft | 119 kts | 178° |
| 2026-05-06 17:28 | 49.07848 | 21.74674 | 7996 ft | 119 kts | 178° |
| 2026-05-06 17:29 | 49.07020 | 21.74899 | 7990 ft | 122 kts | 178° |
| 2026-05-06 17:29 | 49.06191 | 21.75124 | 7987 ft | 122 kts | 178° |
| 2026-05-06 17:29 | 49.05355 | 21.75337 | 7990 ft | 121 kts | 181° |
| 2026-05-06 17:29 | 49.04522 | 21.75454 | 7987 ft | 119 kts | 183° |
| 2026-05-06 17:30 | 49.03702 | 21.75556 | 7987 ft | 118 kts | 183° |
| 2026-05-06 17:30 | 49.02891 | 21.75658 | 7981 ft | 116 kts | 183° |
| 2026-05-06 17:30 | 49.02103 | 21.75763 | 7987 ft | 113 kts | 183° |
| 2026-05-06 17:30 | 49.01310 | 21.75866 | 7991 ft | 115 kts | 183° |
| 2026-05-06 17:31 | 49.00509 | 21.75969 | 7993 ft | 116 kts | 183° |
| 2026-05-06 17:31 | 48.99700 | 21.76068 | 7994 ft | 117 kts | 183° |
| 2026-05-06 17:31 | 48.98890 | 21.76166 | 7992 ft | 117 kts | 183° |
| 2026-05-06 17:31 | 48.98084 | 21.76263 | 7995 ft | 117 kts | 183° |
| 2026-05-06 17:32 | 48.97270 | 21.76361 | 7997 ft | 118 kts | 183° |
| 2026-05-06 17:32 | 48.96444 | 21.76461 | 8002 ft | 120 kts | 183° |
| 2026-05-06 17:32 | 48.95611 | 21.76562 | 8000 ft | 120 kts | 183° |
| 2026-05-06 17:32 | 48.94783 | 21.76656 | 7995 ft | 118 kts | 185° |
| 2026-05-06 17:33 | 48.93978 | 21.76673 | 7997 ft | 117 kts | 187° |
| 2026-05-06 17:33 | 48.93165 | 21.76674 | 7998 ft | 116 kts | 187° |
| 2026-05-06 17:33 | 48.92353 | 21.76674 | 8000 ft | 117 kts | 187° |
| 2026-05-06 17:33 | 48.91540 | 21.76672 | 8001 ft | 117 kts | 187° |
| 2026-05-06 17:34 | 48.90720 | 21.76672 | 8000 ft | 118 kts | 187° |
| 2026-05-06 17:34 | 48.89893 | 21.76672 | 7999 ft | 119 kts | 187° |
| 2026-05-06 17:34 | 48.89064 | 21.76672 | 7999 ft | 119 kts | 187° |
| 2026-05-06 17:34 | 48.88235 | 21.76672 | 8001 ft | 119 kts | 188° |
| 2026-05-06 17:35 | 48.87540 | 21.76146 | 7990 ft | 114 kts | 232° |
| 2026-05-06 17:35 | 48.87358 | 21.74964 | 7995 ft | 119 kts | 264° |
| 2026-05-06 17:35 | 48.87391 | 21.73731 | 7995 ft | 118 kts | 266° |
| 2026-05-06 17:36 | 48.87498 | 21.71283 | 7992 ft | 115 kts | 266° |
| 2026-05-06 17:36 | 48.87552 | 21.70069 | 7994 ft | 116 kts | 266° |
| 2026-05-06 17:36 | 48.87606 | 21.68848 | 7994 ft | 116 kts | 266° |
| 2026-05-06 17:36 | 48.87656 | 21.67622 | 7994 ft | 116 kts | 266° |
| 2026-05-06 17:37 | 48.87701 | 21.66393 | 7932 ft | 120 kts | 266° |
| 2026-05-06 17:37 | 48.87745 | 21.65113 | 7807 ft | 122 kts | 266° |
| 2026-05-06 17:37 | 48.87790 | 21.63814 | 7682 ft | 124 kts | 266° |
| 2026-05-06 17:37 | 48.87837 | 21.62503 | 7558 ft | 125 kts | 266° |
| 2026-05-06 17:38 | 48.87884 | 21.61188 | 7437 ft | 125 kts | 266° |
| 2026-05-06 17:38 | 48.87932 | 21.59869 | 7315 ft | 125 kts | 266° |
| 2026-05-06 17:38 | 48.87981 | 21.58544 | 7189 ft | 126 kts | 266° |
| 2026-05-06 17:38 | 48.88030 | 21.57220 | 7073 ft | 125 kts | 266° |
| 2026-05-06 17:39 | 48.88078 | 21.55887 | 6952 ft | 127 kts | 266° |
| 2026-05-06 17:39 | 48.88124 | 21.54549 | 6823 ft | 126 kts | 266° |
| 2026-05-06 17:39 | 48.88169 | 21.53235 | 6703 ft | 124 kts | 266° |
| 2026-05-06 17:39 | 48.88219 | 21.51936 | 6585 ft | 123 kts | 266° |
| 2026-05-06 17:40 | 48.88266 | 21.50632 | 6459 ft | 125 kts | 266° |
| 2026-05-06 17:40 | 48.88321 | 21.49313 | 6348 ft | 124 kts | 266° |
| 2026-05-06 17:40 | 48.88383 | 21.48008 | 6243 ft | 124 kts | 266° |
| 2026-05-06 17:40 | 48.88445 | 21.46687 | 6111 ft | 126 kts | 266° |
| 2026-05-06 17:41 | 48.88511 | 21.45372 | 5979 ft | 124 kts | 266° |
| 2026-05-06 17:41 | 48.88576 | 21.44066 | 5847 ft | 123 kts | 266° |
| 2026-05-06 17:41 | 48.88632 | 21.42772 | 5713 ft | 121 kts | 259° |
| 2026-05-06 17:41 | 48.88343 | 21.41644 | 5594 ft | 116 kts | 237° |
| 2026-05-06 17:42 | 48.87949 | 21.40586 | 5474 ft | 115 kts | 236° |
| 2026-05-06 17:42 | 48.87544 | 21.39531 | 5344 ft | 116 kts | 236° |
| 2026-05-06 17:42 | 48.87143 | 21.38480 | 5225 ft | 115 kts | 236° |
| 2026-05-06 17:42 | 48.86743 | 21.37424 | 5103 ft | 116 kts | 236° |
| 2026-05-06 17:43 | 48.86335 | 21.36363 | 4973 ft | 117 kts | 236° |
| 2026-05-06 17:43 | 48.85917 | 21.35293 | 4844 ft | 117 kts | 236° |
| 2026-05-06 17:43 | 48.85511 | 21.34237 | 4718 ft | 114 kts | 236° |
| 2026-05-06 17:43 | 48.85121 | 21.33194 | 4593 ft | 114 kts | 236° |
| 2026-05-06 17:44 | 48.84677 | 21.32226 | 4470 ft | 111 kts | 224° |
| 2026-05-06 17:44 | 48.84093 | 21.31479 | 4338 ft | 109 kts | 214° |
| 2026-05-06 17:44 | 48.83449 | 21.30889 | 4223 ft | 110 kts | 212° |
| 2026-05-06 17:44 | 48.82757 | 21.30372 | 4064 ft | 113 kts | 206° |
| 2026-05-06 17:45 | 48.82012 | 21.29929 | 3866 ft | 117 kts | 202° |
| 2026-05-06 17:45 | 48.81237 | 21.29533 | 3664 ft | 117 kts | 202° |
| 2026-05-06 17:45 | 48.80461 | 21.29164 | 3467 ft | 117 kts | 201° |
| 2026-05-06 17:45 | 48.79671 | 21.28849 | 3277 ft | 118 kts | 199° |
| 2026-05-06 17:46 | 48.78886 | 21.28541 | 3095 ft | 115 kts | 198° |
| 2026-05-06 17:46 | 48.78118 | 21.28263 | 2910 ft | 110 kts | 196° |
| 2026-05-06 17:46 | 48.77373 | 21.28050 | 2741 ft | 109 kts | 193° |
| 2026-05-06 17:46 | 48.76613 | 21.27862 | 2568 ft | 112 kts | 193° |
| 2026-05-06 17:47 | 48.75857 | 21.27675 | 2507 ft | 106 kts | 195° |
| 2026-05-06 17:47 | 48.75142 | 21.27460 | 2485 ft | 104 kts | 196° |
| 2026-05-06 17:47 | 48.74426 | 21.27227 | 2363 ft | 110 kts | 198° |
| 2026-05-06 17:47 | 48.73684 | 21.26909 | 2204 ft | 108 kts | 200° |
| 2026-05-06 17:48 | 48.72998 | 21.26526 | 2032 ft | 105 kts | 201° |
| 2026-05-06 17:48 | 48.72327 | 21.26151 | 1859 ft | 99 kts | 199° |
| 2026-05-06 17:48 | 48.71670 | 21.25879 | 1639 ft | 96 kts | 192° |
| 2026-05-06 17:48 | 48.71008 | 21.25694 | 1449 ft | 97 kts | 189° |
| 2026-05-06 17:49 | 48.70342 | 21.25567 | 1290 ft | 92 kts | 191° |
| 2026-05-06 17:49 | 48.69754 | 21.25438 | 1296 ft | 78 kts | 193° |
| 2026-05-06 17:49 | 48.69206 | 21.25197 | 1263 ft | 90 kts | 199° |
| 2026-05-06 17:49 | 48.68566 | 21.24953 | 1325 ft | 98 kts | 196° |
| 2026-05-06 17:50 | 48.67861 | 21.24708 | 1407 ft | 104 kts | 194° |
| 2026-05-06 17:50 | 48.67190 | 21.24495 | 1636 ft | 95 kts | 195° |
| 2026-05-06 17:50 | 48.66564 | 21.24234 | 1786 ft | 92 kts | 198° |
| 2026-05-06 17:50 | 48.65928 | 21.23994 | 1875 ft | 96 kts | 197° |
| 2026-05-06 17:51 | 48.65301 | 21.23802 | 2071 ft | 90 kts | 192° |
| 2026-05-06 17:51 | 48.64674 | 21.23674 | 2239 ft | 89 kts | 196° |
| 2026-05-06 17:51 | 48.64056 | 21.23542 | 2396 ft | 90 kts | 194° |
| 2026-05-06 17:51 | 48.63459 | 21.23377 | 2568 ft | 87 kts | 198° |
| 2026-05-06 17:52 | 48.62870 | 21.23167 | 2738 ft | 85 kts | 199° |
| 2026-05-06 17:52 | 48.62305 | 21.22905 | 2911 ft | 85 kts | 201° |
| 2026-05-06 17:52 | 48.61741 | 21.22617 | 3084 ft | 84 kts | 202° |
| 2026-05-06 17:52 | 48.61184 | 21.22387 | 3257 ft | 82 kts | 199° |
| 2026-05-06 17:53 | 48.60626 | 21.22183 | 3427 ft | 82 kts | 199° |
| 2026-05-06 17:53 | 48.60072 | 21.21985 | 3596 ft | 82 kts | 198° |
| 2026-05-06 17:53 | 48.59505 | 21.21811 | 3770 ft | 84 kts | 197° |
| 2026-05-06 17:53 | 48.58929 | 21.21650 | 3944 ft | 84 kts | 197° |
| 2026-05-06 17:54 | 48.58356 | 21.21461 | 4112 ft | 83 kts | 208° |
| 2026-05-06 17:54 | 48.58023 | 21.20789 | 4278 ft | 86 kts | 252° |
| 2026-05-06 17:54 | 48.58132 | 21.19877 | 4463 ft | 91 kts | 277° |
| 2026-05-06 17:54 | 48.58413 | 21.18937 | 4499 ft | 108 kts | 289° |
| 2026-05-06 17:55 | 48.58912 | 21.17986 | 4492 ft | 123 kts | 306° |
| 2026-05-06 17:55 | 48.59623 | 21.17211 | 4494 ft | 132 kts | 320° |
| 2026-05-06 17:55 | 48.60482 | 21.16615 | 4498 ft | 139 kts | 330° |
| 2026-05-06 17:55 | 48.61448 | 21.16312 | 4494 ft | 148 kts | 353° |
| 2026-05-06 17:56 | 48.62470 | 21.16641 | 4496 ft | 154 kts | 19° |
| 2026-05-06 17:56 | 48.63355 | 21.17590 | 4501 ft | 158 kts | 42° |
| 2026-05-06 17:56 | 48.64162 | 21.18741 | 4498 ft | 160 kts | 43° |
| 2026-05-06 17:56 | 48.64960 | 21.19907 | 4497 ft | 159 kts | 44° |
| 2026-05-06 17:57 | 48.65753 | 21.21074 | 4496 ft | 157 kts | 45° |
| 2026-05-06 17:57 | 48.66510 | 21.22211 | 4500 ft | 151 kts | 46° |
| 2026-05-06 17:57 | 48.67259 | 21.23313 | 4502 ft | 149 kts | 45° |
| 2026-05-06 17:57 | 48.68006 | 21.24394 | 4504 ft | 148 kts | 44° |
| 2026-05-06 17:58 | 48.68505 | 21.25103 | 4504 ft | 149 kts | 44° |
| 2026-05-06 17:58 | 48.69274 | 21.26170 | 4504 ft | 150 kts | 41° |
| 2026-05-06 17:58 | 48.70162 | 21.26996 | 4501 ft | 149 kts | 24° |
| 2026-05-06 17:58 | 48.71400 | 21.27892 | 4506 ft | 150 kts | 22° |
| 2026-05-06 17:59 | 48.72040 | 21.28356 | 4500 ft | 152 kts | 23° |
| 2026-05-06 17:59 | 48.72981 | 21.29100 | 4503 ft | 153 kts | 26° |
| 2026-05-06 17:59 | 48.73915 | 21.29885 | 4491 ft | 153 kts | 28° |
| 2026-05-06 17:59 | 48.74807 | 21.30711 | 4495 ft | 152 kts | 32° |
| 2026-05-06 18:00 | 48.75704 | 21.31556 | 4491 ft | 151 kts | 31° |
| 2026-05-06 18:00 | 48.76592 | 21.32403 | 4497 ft | 152 kts | 31° |
| 2026-05-06 18:00 | 48.77490 | 21.33276 | 4500 ft | 154 kts | 31° |
| 2026-05-06 18:00 | 48.78400 | 21.34159 | 4496 ft | 156 kts | 31° |
| 2026-05-06 18:01 | 48.79319 | 21.35032 | 4497 ft | 156 kts | 30° |
| 2026-05-06 18:01 | 48.80241 | 21.35885 | 4497 ft | 155 kts | 30° |
| 2026-05-06 18:01 | 48.81167 | 21.36730 | 4503 ft | 156 kts | 30° |
| 2026-05-06 18:01 | 48.82091 | 21.37595 | 4496 ft | 154 kts | 31° |
| 2026-05-06 18:02 | 48.82997 | 21.38433 | 4499 ft | 152 kts | 30° |
| 2026-05-06 18:02 | 48.83907 | 21.39273 | 4500 ft | 154 kts | 30° |
| 2026-05-06 18:02 | 48.84854 | 21.40018 | 4492 ft | 152 kts | 10° |
| 2026-05-06 18:02 | 48.85849 | 21.39902 | 4487 ft | 141 kts | 325° |
| 2026-05-06 18:03 | 48.86507 | 21.38934 | 4447 ft | 131 kts | 289° |
| 2026-05-06 18:03 | 48.86804 | 21.37656 | 4308 ft | 126 kts | 262° |
| 2026-05-06 18:03 | 48.86516 | 21.36468 | 4173 ft | 118 kts | 236° |
| 2026-05-06 18:03 | 48.86091 | 21.35404 | 4053 ft | 118 kts | 234° |
| 2026-05-06 18:04 | 48.85661 | 21.34345 | 3937 ft | 116 kts | 233° |
| 2026-05-06 18:04 | 48.85162 | 21.33411 | 3862 ft | 112 kts | 227° |
| 2026-05-06 18:04 | 48.84607 | 21.32622 | 3789 ft | 108 kts | 218° |
| 2026-05-06 18:04 | 48.84009 | 21.31953 | 3702 ft | 107 kts | 216° |
| 2026-05-06 18:05 | 48.83411 | 21.31275 | 3568 ft | 107 kts | 216° |
| 2026-05-06 18:05 | 48.82812 | 21.30602 | 3455 ft | 107 kts | 215° |
| 2026-05-06 18:05 | 48.82177 | 21.30010 | 3332 ft | 107 kts | 210° |
| 2026-05-06 18:05 | 48.81499 | 21.29556 | 3214 ft | 110 kts | 202° |
| 2026-05-06 18:06 | 48.80757 | 21.29250 | 3093 ft | 112 kts | 197° |
| 2026-05-06 18:06 | 48.79981 | 21.29040 | 2964 ft | 114 kts | 194° |
| 2026-05-06 18:06 | 48.79192 | 21.28856 | 2839 ft | 114 kts | 194° |
| 2026-05-06 18:06 | 48.78411 | 21.28609 | 2716 ft | 116 kts | 197° |
| 2026-05-06 18:07 | 48.77615 | 21.28373 | 2589 ft | 117 kts | 196° |
| 2026-05-06 18:07 | 48.76841 | 21.28095 | 2497 ft | 110 kts | 198° |
| 2026-05-06 18:07 | 48.76152 | 21.27802 | 2500 ft | 97 kts | 199° |
| 2026-05-06 18:07 | 48.75516 | 21.27495 | 2503 ft | 96 kts | 200° |
| 2026-05-06 18:08 | 48.74871 | 21.27194 | 2462 ft | 99 kts | 200° |
| 2026-05-06 18:08 | 48.74177 | 21.26906 | 2336 ft | 104 kts | 198° |
| 2026-05-06 18:08 | 48.73580 | 21.26684 | 2225 ft | 76 kts | 197° |
| 2026-05-06 18:08 | 48.73162 | 21.26526 | 2073 ft | 55 kts | 195° |
| 2026-05-06 18:09 | 48.72784 | 21.26380 | 1944 ft | 56 kts | 197° |
| 2026-05-06 18:09 | 48.72411 | 21.26248 | 1810 ft | 54 kts | 192° |
| 2026-05-06 18:09 | 48.72038 | 21.26100 | 1708 ft | 57 kts | 194° |
| 2026-05-06 18:09 | 48.71650 | 21.25951 | 1624 ft | 57 kts | 193° |
| 2026-05-06 18:10 | 48.71247 | 21.25813 | 1583 ft | 60 kts | 190° |
| 2026-05-06 18:10 | 48.70817 | 21.25670 | 1520 ft | 67 kts | 193° |
| 2026-05-06 18:10 | 48.70355 | 21.25503 | 1475 ft | 68 kts | 194° |
| 2026-05-06 18:10 | 48.69875 | 21.25368 | 1396 ft | 72 kts | 193° |
| 2026-05-06 18:11 | 48.69395 | 21.25245 | 1298 ft | 66 kts | 195° |
| 2026-05-06 18:11 | 48.68972 | 21.25099 | 1193 ft | 60 kts | 196° |
| 2026-05-06 18:11 | 48.68534 | 21.24904 | 1045 ft | 70 kts | 197° |
| 2026-05-06 18:11 | 48.68062 | 21.24739 | 958 ft | 67 kts | 193° |
| 2026-05-06 18:12 | 48.67604 | 21.24578 | 805 ft | 67 kts | 193° |
| 2026-05-06 18:12 | 48.67186 | 21.24435 | 754 ft | 54 kts | 191° |
| 2026-05-06 18:12 | 48.66907 | 21.24341 | 755 ft | 38 kts | 193° |
| 2026-05-06 18:12 | 48.66504 | 21.24191 | 767 ft | 77 kts | 193° |
| 2026-05-06 18:13 | 48.65954 | 21.24000 | 916 ft | 83 kts | 193° |
| 2026-05-06 18:13 | 48.65342 | 21.23788 | 1018 ft | 96 kts | 194° |
| 2026-05-06 18:13 | 48.64688 | 21.23553 | 1106 ft | 99 kts | 191° |
| 2026-05-06 18:13 | 48.64028 | 21.23346 | 1257 ft | 96 kts | 193° |
| 2026-05-06 18:14 | 48.63378 | 21.23123 | 1428 ft | 97 kts | 195° |
| 2026-05-06 18:14 | 48.62732 | 21.22879 | 1628 ft | 92 kts | 195° |
| 2026-05-06 18:14 | 48.62126 | 21.22732 | 1839 ft | 86 kts | 193° |
| 2026-05-06 18:14 | 48.61528 | 21.22585 | 2012 ft | 87 kts | 194° |
| 2026-05-06 18:15 | 48.60923 | 21.22394 | 2164 ft | 90 kts | 194° |
| 2026-05-06 18:15 | 48.60309 | 21.22225 | 2317 ft | 89 kts | 195° |
| 2026-05-06 18:15 | 48.59703 | 21.22052 | 2466 ft | 88 kts | 197° |
| 2026-05-06 18:15 | 48.59103 | 21.21866 | 2614 ft | 88 kts | 197° |
| 2026-05-06 18:16 | 48.58519 | 21.21599 | 2757 ft | 87 kts | 207° |
| 2026-05-06 18:16 | 48.58020 | 21.21087 | 2905 ft | 87 kts | 223° |
| 2026-05-06 18:16 | 48.57649 | 21.20360 | 3050 ft | 89 kts | 237° |
| 2026-05-06 18:16 | 48.57446 | 21.19465 | 3201 ft | 92 kts | 252° |
| 2026-05-06 18:17 | 48.57431 | 21.18475 | 3349 ft | 98 kts | 267° |
| 2026-05-06 18:17 | 48.57617 | 21.17474 | 3493 ft | 104 kts | 283° |
| 2026-05-06 18:17 | 48.58067 | 21.16567 | 3636 ft | 114 kts | 306° |
| 2026-05-06 18:17 | 48.58780 | 21.15952 | 3782 ft | 124 kts | 332° |
| 2026-05-06 18:18 | 48.59660 | 21.15812 | 3933 ft | 131 kts | 355° |
| 2026-05-06 18:18 | 48.60559 | 21.16066 | 4080 ft | 132 kts | 12° |
| 2026-05-06 18:18 | 48.61392 | 21.16670 | 4230 ft | 134 kts | 30° |
| 2026-05-06 18:18 | 48.62154 | 21.17480 | 4383 ft | 134 kts | 33° |
| 2026-05-06 18:19 | 48.62910 | 21.18305 | 4538 ft | 134 kts | 33° |
| 2026-05-06 18:19 | 48.63671 | 21.19135 | 4687 ft | 136 kts | 33° |
| 2026-05-06 18:19 | 48.64410 | 21.20015 | 4826 ft | 134 kts | 39° |
| 2026-05-06 18:19 | 48.65111 | 21.20926 | 4972 ft | 132 kts | 40° |
| 2026-05-06 18:20 | 48.65834 | 21.21867 | 4997 ft | 142 kts | 40° |
| 2026-05-06 18:20 | 48.66614 | 21.22854 | 5002 ft | 149 kts | 39° |
| 2026-05-06 18:20 | 48.67428 | 21.23867 | 5006 ft | 154 kts | 39° |
| 2026-05-06 18:20 | 48.68268 | 21.24910 | 5004 ft | 158 kts | 39° |
| 2026-05-06 18:21 | 48.69122 | 21.25971 | 5001 ft | 159 kts | 39° |
| 2026-05-06 18:21 | 48.69976 | 21.27034 | 5004 ft | 160 kts | 39° |
| 2026-05-06 18:21 | 48.70826 | 21.28091 | 5005 ft | 161 kts | 39° |
| 2026-05-06 18:21 | 48.71696 | 21.29180 | 5003 ft | 163 kts | 39° |
| 2026-05-06 18:22 | 48.72571 | 21.30264 | 4999 ft | 162 kts | 39° |
| 2026-05-06 18:22 | 48.73449 | 21.31345 | 4998 ft | 163 kts | 39° |
| 2026-05-06 18:22 | 48.74348 | 21.32366 | 4991 ft | 160 kts | 25° |
| 2026-05-06 18:22 | 48.75362 | 21.32996 | 4996 ft | 156 kts | 17° |
| 2026-05-06 18:23 | 48.76382 | 21.33573 | 4945 ft | 158 kts | 17° |
| 2026-05-06 18:23 | 48.77421 | 21.34152 | 4826 ft | 160 kts | 16° |
| 2026-05-06 18:23 | 48.78472 | 21.34730 | 4696 ft | 160 kts | 16° |
| 2026-05-06 18:23 | 48.79515 | 21.35293 | 4577 ft | 158 kts | 16° |
| 2026-05-06 18:24 | 48.80552 | 21.35857 | 4447 ft | 158 kts | 16° |
| 2026-05-06 18:24 | 48.81589 | 21.36364 | 4309 ft | 154 kts | 2° |
| 2026-05-06 18:24 | 48.82571 | 21.36046 | 4182 ft | 139 kts | 318° |
| 2026-05-06 18:24 | 48.83108 | 21.34986 | 4052 ft | 123 kts | 276° |
| 2026-05-06 18:25 | 48.82991 | 21.33819 | 3917 ft | 109 kts | 234° |
| 2026-05-06 18:25 | 48.82517 | 21.32940 | 3799 ft | 107 kts | 227° |
| 2026-05-06 18:25 | 48.82028 | 21.32108 | 3677 ft | 104 kts | 226° |
| 2026-05-06 18:25 | 48.81557 | 21.31286 | 3552 ft | 102 kts | 226° |
| 2026-05-06 18:26 | 48.81105 | 21.30491 | 3499 ft | 95 kts | 226° |
| 2026-05-06 18:26 | 48.80661 | 21.29820 | 3494 ft | 87 kts | 225° |
| 2026-05-06 18:26 | 48.80214 | 21.29241 | 3493 ft | 84 kts | 210° |
| 2026-05-06 18:26 | 48.79652 | 21.28950 | 3440 ft | 89 kts | 202° |
| 2026-05-06 18:27 | 48.79033 | 21.28661 | 3320 ft | 96 kts | 201° |
| 2026-05-06 18:27 | 48.78370 | 21.28385 | 3195 ft | 101 kts | 201° |
| 2026-05-06 18:27 | 48.77681 | 21.28117 | 3076 ft | 103 kts | 199° |
| 2026-05-06 18:27 | 48.76980 | 21.27857 | 2949 ft | 104 kts | 199° |
| 2026-05-06 18:28 | 48.76282 | 21.27606 | 2829 ft | 104 kts | 198° |
| 2026-05-06 18:28 | 48.75570 | 21.27352 | 2705 ft | 105 kts | 197° |
| 2026-05-06 18:28 | 48.74858 | 21.27103 | 2579 ft | 105 kts | 196° |
| 2026-05-06 18:28 | 48.74147 | 21.26854 | 2434 ft | 103 kts | 196° |
| 2026-05-06 18:29 | 48.73464 | 21.26617 | 2285 ft | 98 kts | 195° |
| 2026-05-06 18:29 | 48.72817 | 21.26386 | 2133 ft | 93 kts | 195° |
| 2026-05-06 18:29 | 48.72191 | 21.26165 | 1982 ft | 92 kts | 194° |
| 2026-05-06 18:29 | 48.71560 | 21.25946 | 1831 ft | 94 kts | 193° |
| 2026-05-06 18:30 | 48.70925 | 21.25725 | 1673 ft | 93 kts | 193° |
| 2026-05-06 18:30 | 48.70287 | 21.25500 | 1525 ft | 96 kts | 193° |
| 2026-05-06 18:30 | 48.69630 | 21.25272 | 1378 ft | 97 kts | 195° |
| 2026-05-06 18:30 | 48.69006 | 21.25068 | 1259 ft | 81 kts | 195° |
| 2026-05-06 18:31 | 48.68527 | 21.24902 | 1073 ft | 64 kts | 198° |
| 2026-05-06 18:31 | 48.68070 | 21.24738 | 937 ft | 72 kts | 193° |
| 2026-05-06 18:31 | 48.67582 | 21.24569 | 803 ft | 71 kts | 192° |
| 2026-05-06 18:31 | 48.67145 | 21.24419 | 758 ft | 56 kts | 192° |
| 2026-05-06 18:32 | 48.66815 | 21.24303 | 755 ft | 40 kts | 191° |
| 2026-05-06 18:32 | 48.66488 | 21.24188 | 751 ft | 67 kts | 193° |
| 2026-05-06 18:32 | 48.65973 | 21.24009 | 864 ft | 80 kts | 192° |
| 2026-05-06 18:32 | 48.65416 | 21.23811 | 1011 ft | 87 kts | 191° |
| 2026-05-06 18:33 | 48.64805 | 21.23607 | 1134 ft | 92 kts | 191° |
| 2026-05-06 18:33 | 48.64191 | 21.23398 | 1266 ft | 88 kts | 191° |
| 2026-05-06 18:33 | 48.63598 | 21.23195 | 1389 ft | 88 kts | 193° |
| 2026-05-06 18:33 | 48.63002 | 21.22987 | 1520 ft | 87 kts | 193° |
| 2026-05-06 18:34 | 48.62422 | 21.22786 | 1643 ft | 86 kts | 194° |
| 2026-05-06 18:34 | 48.61861 | 21.22527 | 1759 ft | 83 kts | 199° |
| 2026-05-06 18:34 | 48.61296 | 21.22391 | 1883 ft | 82 kts | 191° |
| 2026-05-06 18:34 | 48.60724 | 21.22281 | 2010 ft | 83 kts | 191° |
| 2026-05-06 18:35 | 48.60144 | 21.22179 | 2137 ft | 83 kts | 191° |
| 2026-05-06 18:35 | 48.59570 | 21.22099 | 2259 ft | 82 kts | 190° |
| 2026-05-06 18:35 | 48.59005 | 21.21988 | 2386 ft | 80 kts | 195° |
| 2026-05-06 18:35 | 48.58496 | 21.21681 | 2498 ft | 78 kts | 213° |
| 2026-05-06 18:36 | 48.58098 | 21.21137 | 2618 ft | 78 kts | 228° |
| 2026-05-06 18:36 | 48.57822 | 21.20421 | 2734 ft | 82 kts | 245° |
| 2026-05-06 18:36 | 48.57831 | 21.19536 | 2851 ft | 90 kts | 275° |
| 2026-05-06 18:36 | 48.58173 | 21.18651 | 2961 ft | 107 kts | 300° |
| 2026-05-06 18:37 | 48.58772 | 21.17899 | 3083 ft | 116 kts | 314° |
| 2026-05-06 18:37 | 48.59225 | 21.17462 | 3165 ft | 119 kts | 318° |
| 2026-05-06 18:37 | 48.60349 | 21.17028 | 3330 ft | 131 kts | 348° |
| 2026-05-06 18:37 | 48.61269 | 21.17070 | 3449 ft | 134 kts | 360° |
| 2026-05-06 18:38 | 48.62201 | 21.17273 | 3575 ft | 137 kts | 2° |
| 2026-05-06 18:38 | 48.63129 | 21.17712 | 3699 ft | 143 kts | 19° |
| 2026-05-06 18:38 | 48.64021 | 21.18359 | 3825 ft | 146 kts | 24° |
| 2026-05-06 18:38 | 48.64881 | 21.19132 | 3929 ft | 141 kts | 37° |
| 2026-05-06 18:39 | 48.65629 | 21.20044 | 4057 ft | 137 kts | 43° |
| 2026-05-06 18:39 | 48.66269 | 21.21099 | 4185 ft | 135 kts | 50° |
| 2026-05-06 18:39 | 48.66881 | 21.22189 | 4318 ft | 137 kts | 51° |
| 2026-05-06 18:40 | 48.68145 | 21.24405 | 4566 ft | 139 kts | 54° |
| 2026-05-06 18:40 | 48.68572 | 21.25690 | 4688 ft | 135 kts | 81° |
| 2026-05-06 18:40 | 48.68771 | 21.27072 | 4814 ft | 134 kts | 87° |
| 2026-05-06 18:40 | 48.68935 | 21.28463 | 4937 ft | 135 kts | 86° |
| 2026-05-06 18:41 | 48.69114 | 21.29851 | 5067 ft | 138 kts | 86° |
| 2026-05-06 18:41 | 48.69231 | 21.31271 | 5186 ft | 136 kts | 92° |
| 2026-05-06 18:41 | 48.69358 | 21.32688 | 5310 ft | 136 kts | 89° |
| 2026-05-06 18:41 | 48.69519 | 21.34108 | 5435 ft | 137 kts | 87° |
| 2026-05-06 18:42 | 48.69695 | 21.35535 | 5563 ft | 139 kts | 86° |
| 2026-05-06 18:42 | 48.69875 | 21.36982 | 5677 ft | 141 kts | 85° |
| 2026-05-06 18:42 | 48.70062 | 21.38448 | 5801 ft | 143 kts | 85° |
| 2026-05-06 18:42 | 48.70253 | 21.39925 | 5928 ft | 142 kts | 86° |
| 2026-05-06 18:43 | 48.70443 | 21.41401 | 6054 ft | 143 kts | 85° |
| 2026-05-06 18:43 | 48.70632 | 21.42869 | 6186 ft | 142 kts | 85° |
| 2026-05-06 18:43 | 48.70817 | 21.44312 | 6305 ft | 142 kts | 85° |
| 2026-05-06 18:43 | 48.71006 | 21.45779 | 6426 ft | 142 kts | 85° |
| 2026-05-06 18:44 | 48.71194 | 21.47247 | 6541 ft | 142 kts | 85° |
| 2026-05-06 18:44 | 48.71383 | 21.48711 | 6664 ft | 142 kts | 85° |
| 2026-05-06 18:44 | 48.71573 | 21.50184 | 6785 ft | 143 kts | 85° |
| 2026-05-06 18:44 | 48.71763 | 21.51656 | 6912 ft | 143 kts | 84° |
| 2026-05-06 18:45 | 48.71946 | 21.53142 | 6977 ft | 145 kts | 88° |
| 2026-05-06 18:45 | 48.72130 | 21.54675 | 7003 ft | 152 kts | 83° |
| 2026-05-06 18:45 | 48.72279 | 21.55750 | 7002 ft | 156 kts | 83° |
| 2026-05-06 18:45 | 48.72493 | 21.57355 | 7004 ft | 158 kts | 83° |
| 2026-05-06 18:46 | 48.72705 | 21.58998 | 7006 ft | 159 kts | 84° |
| 2026-05-06 18:46 | 48.72916 | 21.60655 | 7005 ft | 160 kts | 84° |
| 2026-05-06 18:46 | 48.73145 | 21.62302 | 7000 ft | 161 kts | 76° |
| 2026-05-06 18:46 | 48.73824 | 21.63641 | 6991 ft | 163 kts | 31° |
| 2026-05-06 18:47 | 48.74860 | 21.64172 | 6994 ft | 154 kts | 2° |
| 2026-05-06 18:47 | 48.75906 | 21.64355 | 6995 ft | 150 kts | 359° |
| 2026-05-06 18:47 | 48.76935 | 21.64509 | 6995 ft | 148 kts | 358° |
| 2026-05-06 18:47 | 48.77955 | 21.64660 | 6995 ft | 147 kts | 358° |
| 2026-05-06 18:48 | 48.78970 | 21.64808 | 6996 ft | 146 kts | 358° |
| 2026-05-06 18:48 | 48.79965 | 21.64957 | 6998 ft | 145 kts | 358° |
| 2026-05-06 18:48 | 48.80984 | 21.65109 | 6998 ft | 146 kts | 358° |
| 2026-05-06 18:48 | 48.81984 | 21.65262 | 7004 ft | 147 kts | 358° |
| 2026-05-06 18:49 | 48.83000 | 21.65424 | 7004 ft | 147 kts | 358° |
| 2026-05-06 18:49 | 48.84022 | 21.65577 | 6999 ft | 148 kts | 358° |
| 2026-05-06 18:49 | 48.85048 | 21.65724 | 6999 ft | 148 kts | 358° |
| 2026-05-06 18:49 | 48.86078 | 21.65871 | 6999 ft | 149 kts | 358° |
| 2026-05-06 18:50 | 48.87109 | 21.66025 | 6998 ft | 149 kts | 358° |
| 2026-05-06 18:50 | 48.88137 | 21.66186 | 6999 ft | 148 kts | 358° |
| 2026-05-06 18:50 | 48.89165 | 21.66344 | 7000 ft | 149 kts | 358° |
| 2026-05-06 18:50 | 48.90199 | 21.66503 | 7000 ft | 149 kts | 358° |
| 2026-05-06 18:51 | 48.91234 | 21.66664 | 7000 ft | 150 kts | 358° |
| 2026-05-06 18:51 | 48.92272 | 21.66825 | 7004 ft | 151 kts | 358° |
| 2026-05-06 18:51 | 48.93321 | 21.66974 | 7003 ft | 151 kts | 358° |
| 2026-05-06 18:51 | 48.94374 | 21.67120 | 7001 ft | 152 kts | 358° |
| 2026-05-06 18:52 | 48.95405 | 21.67248 | 6998 ft | 149 kts | 354° |
| 2026-05-06 18:52 | 48.96449 | 21.67247 | 7001 ft | 148 kts | 351° |
| 2026-05-06 18:52 | 48.97463 | 21.67230 | 6997 ft | 147 kts | 351° |
| 2026-05-06 18:52 | 48.98487 | 21.67218 | 7002 ft | 148 kts | 351° |
| 2026-05-06 18:53 | 48.99516 | 21.67203 | 6998 ft | 148 kts | 351° |
| 2026-05-06 18:53 | 49.00543 | 21.67183 | 6989 ft | 146 kts | 351° |
| 2026-05-06 18:53 | 49.01554 | 21.67161 | 6988 ft | 143 kts | 351° |
| 2026-05-06 18:53 | 49.02545 | 21.67136 | 7001 ft | 143 kts | 351° |
| 2026-05-06 18:54 | 49.03554 | 21.67117 | 6976 ft | 148 kts | 352° |
| 2026-05-06 18:54 | 49.04612 | 21.67084 | 6822 ft | 154 kts | 352° |
| 2026-05-06 18:54 | 49.05681 | 21.67028 | 6671 ft | 153 kts | 349° |
| 2026-05-06 18:54 | 49.06749 | 21.66950 | 6554 ft | 154 kts | 349° |
| 2026-05-06 18:55 | 49.07827 | 21.66871 | 6428 ft | 155 kts | 349° |
| 2026-05-06 18:55 | 49.08909 | 21.66800 | 6325 ft | 156 kts | 349° |
| 2026-05-06 18:55 | 49.09975 | 21.66694 | 6202 ft | 155 kts | 347° |
| 2026-05-06 18:55 | 49.11048 | 21.66553 | 6063 ft | 154 kts | 346° |
| 2026-05-06 18:56 | 49.12113 | 21.66415 | 5946 ft | 153 kts | 346° |
| 2026-05-06 18:56 | 49.13177 | 21.66280 | 5827 ft | 154 kts | 346° |
| 2026-05-06 18:56 | 49.14240 | 21.66135 | 5689 ft | 153 kts | 346° |
| 2026-05-06 18:56 | 49.15292 | 21.65988 | 5570 ft | 151 kts | 346° |
| 2026-05-06 18:57 | 49.16347 | 21.65840 | 5441 ft | 153 kts | 346° |
| 2026-05-06 18:57 | 49.17406 | 21.65692 | 5315 ft | 153 kts | 346° |
| 2026-05-06 18:57 | 49.18468 | 21.65543 | 5191 ft | 153 kts | 346° |
| 2026-05-06 18:57 | 49.19515 | 21.65319 | 5070 ft | 152 kts | 342° |
| 2026-05-06 18:58 | 49.20562 | 21.65043 | 4946 ft | 153 kts | 341° |
| 2026-05-06 18:58 | 49.21613 | 21.64760 | 4822 ft | 153 kts | 341° |
| 2026-05-06 18:58 | 49.22667 | 21.64477 | 4701 ft | 154 kts | 341° |
| 2026-05-06 18:58 | 49.23725 | 21.64193 | 4578 ft | 155 kts | 341° |
| 2026-05-06 18:59 | 49.24792 | 21.63908 | 4449 ft | 155 kts | 341° |
| 2026-05-06 18:59 | 49.25858 | 21.63624 | 4322 ft | 155 kts | 341° |
| 2026-05-06 18:59 | 49.26926 | 21.63335 | 4195 ft | 155 kts | 341° |
| 2026-05-06 18:59 | 49.27983 | 21.63045 | 4066 ft | 153 kts | 342° |
| 2026-05-06 19:00 | 49.29017 | 21.62746 | 3950 ft | 154 kts | 341° |
| 2026-05-06 19:00 | 49.30084 | 21.62441 | 3819 ft | 155 kts | 342° |
| 2026-05-06 19:00 | 49.31126 | 21.62148 | 3681 ft | 148 kts | 342° |
| 2026-05-06 19:00 | 49.32125 | 21.61854 | 3573 ft | 144 kts | 341° |
| 2026-05-06 19:01 | 49.33076 | 21.61575 | 3334 ft | 134 kts | 341° |
| 2026-05-06 19:01 | 49.33859 | 21.60985 | 2954 ft | 119 kts | 306° |
| 2026-05-06 19:01 | 49.34399 | 21.60137 | 2665 ft | 107 kts | 299° |
| 2026-05-06 19:01 | 49.34707 | 21.59281 | 2498 ft | 82 kts | 275° |
| 2026-05-06 19:02 | 49.34769 | 21.58431 | 2190 ft | 78 kts | 250° |
| 2026-05-06 19:02 | 49.34574 | 21.57665 | 1860 ft | 72 kts | 232° |
| 2026-05-06 19:02 | 49.34194 | 21.57188 | 1319 ft | 78 kts | 210° |
| 2026-05-06 19:02 | 49.33718 | 21.57080 | 1132 ft | 55 kts | 186° |
| 2026-05-06 19:03 | 49.33433 | 21.57009 | 1145 ft | 32 kts | 186° |
| 2026-05-06 19:03 | 49.33234 | 21.56960 | 1146 ft | 30 kts | 191° |
| 2026-05-06 19:03 | 49.33036 | 21.56906 | 1148 ft | 25 kts | 199° |
| 2026-05-06 19:03 | 49.32906 | 21.56855 | 1145 ft | 16 kts | 200° |